sensor_id;sensor_type;location;lat;lon;timestamp;temperature;humidity
52181;DHT22;38158;53.338;6.514;2022-10-17T00:00:30;11.20;99.90
52181;DHT22;38158;53.338;6.514;2022-10-17T00:02:56;11.20;99.90
52181;DHT22;38158;53.338;6.514;2022-10-17T00:05:22;11.30;99.90
52181;DHT22;38158;53.338;6.514;2022-10-17T00:07:49;11.40;99.90
52181;DHT22;38158;53.338;6.514;2022-10-17T00:10:15;11.40;99.90
52181;DHT22;38158;53.338;6.514;2022-10-17T00:12:41;11.40;99.90
52181;DHT22;38158;53.338;6.514;2022-10-17T00:15:07;11.40;99.90
52181;DHT22;38158;53.338;6.514;2022-10-17T00:17:33;11.40;99.90
52181;DHT22;38158;53.338;6.514;2022-10-17T00:20:00;11.40;99.90
52181;DHT22;38158;53.338;6.514;2022-10-17T00:22:26;11.50;99.90
52181;DHT22;38158;53.338;6.514;2022-10-17T00:24:52;11.40;99.90
52181;DHT22;38158;53.338;6.514;2022-10-17T00:27:18;11.40;99.90
52181;DHT22;38158;53.338;6.514;2022-10-17T00:29:48;11.40;99.90
52181;DHT22;38158;53.338;6.514;2022-10-17T00:32:14;11.40;99.90
52181;DHT22;38158;53.338;6.514;2022-10-17T00:34:40;11.40;99.90
52181;DHT22;38158;53.338;6.514;2022-10-17T00:37:05;11.40;99.90
52181;DHT22;38158;53.338;6.514;2022-10-17T00:39:31;11.40;99.90
52181;DHT22;38158;53.338;6.514;2022-10-17T00:41:57;11.40;99.90
52181;DHT22;38158;53.338;6.514;2022-10-17T00:47:03;11.40;99.90
52181;DHT22;38158;53.338;6.514;2022-10-17T00:49:32;11.30;99.90
52181;DHT22;38158;53.338;6.514;2022-10-17T00:52:05;11.30;99.90
52181;DHT22;38158;53.338;6.514;2022-10-17T00:54:34;11.30;99.90
52181;DHT22;38158;53.338;6.514;2022-10-17T00:57:02;11.20;99.90
52181;DHT22;38158;53.338;6.514;2022-10-17T00:59:28;11.20;99.90
52181;DHT22;38158;53.338;6.514;2022-10-17T01:02:04;11.20;99.90
52181;DHT22;38158;53.338;6.514;2022-10-17T01:04:31;11.20;99.90
52181;DHT22;38158;53.338;6.514;2022-10-17T01:06:57;11.20;99.90
52181;DHT22;38158;53.338;6.514;2022-10-17T01:09:24;11.30;99.90
52181;DHT22;38158;53.338;6.514;2022-10-17T01:17:27;11.40;99.90
52181;DHT22;38158;53.338;6.514;2022-10-17T01:20:22;11.40;99.90
52181;DHT22;38158;53.338;6.514;2022-10-17T01:25:55;11.50;99.90
52181;DHT22;38158;53.338;6.514;2022-10-17T01:28:50;11.50;99.90
52181;DHT22;38158;53.338;6.514;2022-10-17T01:31:24;11.60;99.90
52181;DHT22;38158;53.338;6.514;2022-10-17T01:34:06;11.60;99.90
52181;DHT22;38158;53.338;6.514;2022-10-17T01:39:45;11.60;99.90
52181;DHT22;38158;53.338;6.514;2022-10-17T01:42:14;11.60;99.90
52181;DHT22;38158;53.338;6.514;2022-10-17T01:47:30;11.60;99.90
52181;DHT22;38158;53.338;6.514;2022-10-17T01:50:02;11.60;99.90
52181;DHT22;38158;53.338;6.514;2022-10-17T01:52:36;11.60;99.90
52181;DHT22;38158;53.338;6.514;2022-10-17T01:55:08;11.70;99.90
52181;DHT22;38158;53.338;6.514;2022-10-17T01:57:38;11.70;99.90
52181;DHT22;38158;53.338;6.514;2022-10-17T02:00:08;11.70;99.90
52181;DHT22;38158;53.338;6.514;2022-10-17T02:02:35;11.70;99.90
52181;DHT22;38158;53.338;6.514;2022-10-17T02:05:02;11.80;99.90
52181;DHT22;38158;53.338;6.514;2022-10-17T02:07:28;11.90;99.90
52181;DHT22;38158;53.338;6.514;2022-10-17T02:09:54;11.90;99.90
52181;DHT22;38158;53.338;6.514;2022-10-17T02:18:26;11.90;99.90
52181;DHT22;38158;53.338;6.514;2022-10-17T02:21:10;12.00;99.90
52181;DHT22;38158;53.338;6.514;2022-10-17T02:26:31;12.00;99.90
52181;DHT22;38158;53.338;6.514;2022-10-17T02:29:06;12.00;99.90
52181;DHT22;38158;53.338;6.514;2022-10-17T02:31:38;12.00;99.90
52181;DHT22;38158;53.338;6.514;2022-10-17T02:34:49;12.00;99.90
52181;DHT22;38158;53.338;6.514;2022-10-17T02:36:59;12.00;99.90
52181;DHT22;38158;53.338;6.514;2022-10-17T02:39:27;12.00;99.90
52181;DHT22;38158;53.338;6.514;2022-10-17T02:41:54;12.00;99.90
52181;DHT22;38158;53.338;6.514;2022-10-17T02:44:21;12.00;99.90
52181;DHT22;38158;53.338;6.514;2022-10-17T02:46:52;12.00;99.90
52181;DHT22;38158;53.338;6.514;2022-10-17T02:49:27;12.00;99.90
52181;DHT22;38158;53.338;6.514;2022-10-17T02:52:06;12.00;99.90
52181;DHT22;38158;53.338;6.514;2022-10-17T02:55:03;12.00;99.90
52181;DHT22;38158;53.338;6.514;2022-10-17T02:57:40;12.00;99.90
52181;DHT22;38158;53.338;6.514;2022-10-17T03:00:08;12.00;99.90
52181;DHT22;38158;53.338;6.514;2022-10-17T03:02:44;12.00;99.90
52181;DHT22;38158;53.338;6.514;2022-10-17T03:05:12;12.00;99.90
52181;DHT22;38158;53.338;6.514;2022-10-17T03:07:38;11.90;99.90
52181;DHT22;38158;53.338;6.514;2022-10-17T03:10:04;12.00;99.90
52181;DHT22;38158;53.338;6.514;2022-10-17T03:12:30;12.00;99.90
52181;DHT22;38158;53.338;6.514;2022-10-17T03:14:55;11.90;99.90
52181;DHT22;38158;53.338;6.514;2022-10-17T03:17:21;11.90;99.90
52181;DHT22;38158;53.338;6.514;2022-10-17T03:19:47;11.90;99.90
52181;DHT22;38158;53.338;6.514;2022-10-17T03:22:12;11.90;99.90
52181;DHT22;38158;53.338;6.514;2022-10-17T03:24:38;11.90;99.90
52181;DHT22;38158;53.338;6.514;2022-10-17T03:27:04;11.90;99.90
52181;DHT22;38158;53.338;6.514;2022-10-17T03:29:29;11.90;99.90
52181;DHT22;38158;53.338;6.514;2022-10-17T03:31:55;11.90;99.90
52181;DHT22;38158;53.338;6.514;2022-10-17T03:34:21;11.90;99.90
52181;DHT22;38158;53.338;6.514;2022-10-17T03:36:46;11.90;99.90
52181;DHT22;38158;53.338;6.514;2022-10-17T03:39:12;11.90;99.90
52181;DHT22;38158;53.338;6.514;2022-10-17T03:41:38;11.90;99.90
52181;DHT22;38158;53.338;6.514;2022-10-17T03:44:04;11.90;99.90
52181;DHT22;38158;53.338;6.514;2022-10-17T03:46:29;11.90;99.90
52181;DHT22;38158;53.338;6.514;2022-10-17T03:48:55;11.90;99.90
52181;DHT22;38158;53.338;6.514;2022-10-17T03:51:21;12.00;99.90
52181;DHT22;38158;53.338;6.514;2022-10-17T03:53:46;12.00;99.90
52181;DHT22;38158;53.338;6.514;2022-10-17T03:56:15;12.00;99.90
52181;DHT22;38158;53.338;6.514;2022-10-17T03:58:42;12.00;99.90
52181;DHT22;38158;53.338;6.514;2022-10-17T04:01:09;12.00;99.90
52181;DHT22;38158;53.338;6.514;2022-10-17T04:03:35;12.00;99.90
52181;DHT22;38158;53.338;6.514;2022-10-17T04:06:03;12.00;99.90
52181;DHT22;38158;53.338;6.514;2022-10-17T04:08:29;12.00;99.90
52181;DHT22;38158;53.338;6.514;2022-10-17T04:10:59;12.00;99.90
52181;DHT22;38158;53.338;6.514;2022-10-17T04:13:25;12.00;99.90
52181;DHT22;38158;53.338;6.514;2022-10-17T04:16:03;12.00;99.90
52181;DHT22;38158;53.338;6.514;2022-10-17T04:18:29;12.10;99.90
52181;DHT22;38158;53.338;6.514;2022-10-17T04:20:55;12.10;99.90
52181;DHT22;38158;53.338;6.514;2022-10-17T04:23:21;12.10;99.90
52181;DHT22;38158;53.338;6.514;2022-10-17T04:25:47;12.10;99.90
52181;DHT22;38158;53.338;6.514;2022-10-17T04:28:13;12.10;99.90
52181;DHT22;38158;53.338;6.514;2022-10-17T04:30:39;12.10;99.90
52181;DHT22;38158;53.338;6.514;2022-10-17T04:33:05;12.10;99.90
52181;DHT22;38158;53.338;6.514;2022-10-17T04:35:31;12.10;99.90
52181;DHT22;38158;53.338;6.514;2022-10-17T04:37:56;12.10;99.90
52181;DHT22;38158;53.338;6.514;2022-10-17T04:40:22;12.10;99.90
52181;DHT22;38158;53.338;6.514;2022-10-17T04:42:48;12.20;99.90
52181;DHT22;38158;53.338;6.514;2022-10-17T04:45:13;12.20;99.90
52181;DHT22;38158;53.338;6.514;2022-10-17T04:47:39;12.10;99.90
52181;DHT22;38158;53.338;6.514;2022-10-17T04:50:05;12.20;99.90
52181;DHT22;38158;53.338;6.514;2022-10-17T04:52:31;12.20;99.90
52181;DHT22;38158;53.338;6.514;2022-10-17T04:54:56;12.30;99.90
52181;DHT22;38158;53.338;6.514;2022-10-17T04:57:22;12.30;99.90
52181;DHT22;38158;53.338;6.514;2022-10-17T04:59:49;12.30;99.90
52181;DHT22;38158;53.338;6.514;2022-10-17T05:02:15;12.30;99.90
52181;DHT22;38158;53.338;6.514;2022-10-17T05:04:41;12.40;99.90
52181;DHT22;38158;53.338;6.514;2022-10-17T05:07:06;12.40;99.90
52181;DHT22;38158;53.338;6.514;2022-10-17T05:09:32;12.50;99.90
52181;DHT22;38158;53.338;6.514;2022-10-17T05:11:58;12.50;99.90
52181;DHT22;38158;53.338;6.514;2022-10-17T05:14:24;12.50;99.90
52181;DHT22;38158;53.338;6.514;2022-10-17T05:16:49;12.50;99.90
52181;DHT22;38158;53.338;6.514;2022-10-17T05:19:15;12.60;99.90
52181;DHT22;38158;53.338;6.514;2022-10-17T05:21:42;12.60;99.90
52181;DHT22;38158;53.338;6.514;2022-10-17T05:24:10;12.60;99.90
52181;DHT22;38158;53.338;6.514;2022-10-17T05:26:36;12.60;99.90
52181;DHT22;38158;53.338;6.514;2022-10-17T05:29:02;12.60;99.90
52181;DHT22;38158;53.338;6.514;2022-10-17T05:31:29;12.60;99.90
52181;DHT22;38158;53.338;6.514;2022-10-17T05:33:55;12.60;99.90
52181;DHT22;38158;53.338;6.514;2022-10-17T05:36:24;12.60;99.90
52181;DHT22;38158;53.338;6.514;2022-10-17T05:38:51;12.60;99.90
52181;DHT22;38158;53.338;6.514;2022-10-17T05:41:17;12.70;99.90
52181;DHT22;38158;53.338;6.514;2022-10-17T05:43:43;12.70;99.90
52181;DHT22;38158;53.338;6.514;2022-10-17T05:46:09;12.70;99.90
52181;DHT22;38158;53.338;6.514;2022-10-17T05:48:35;12.70;99.90
52181;DHT22;38158;53.338;6.514;2022-10-17T05:51:03;12.70;99.90
52181;DHT22;38158;53.338;6.514;2022-10-17T05:53:30;12.70;99.90
52181;DHT22;38158;53.338;6.514;2022-10-17T05:56:01;12.70;99.90
52181;DHT22;38158;53.338;6.514;2022-10-17T05:58:27;12.70;99.90
52181;DHT22;38158;53.338;6.514;2022-10-17T06:00:58;12.70;99.90
52181;DHT22;38158;53.338;6.514;2022-10-17T06:03:24;12.70;99.90
52181;DHT22;38158;53.338;6.514;2022-10-17T06:05:49;12.60;99.90
52181;DHT22;38158;53.338;6.514;2022-10-17T06:08:16;12.70;99.90
52181;DHT22;38158;53.338;6.514;2022-10-17T06:10:42;12.80;99.90
52181;DHT22;38158;53.338;6.514;2022-10-17T06:13:07;12.80;99.90
52181;DHT22;38158;53.338;6.514;2022-10-17T06:15:33;12.80;99.90
52181;DHT22;38158;53.338;6.514;2022-10-17T06:17:59;12.80;99.90
52181;DHT22;38158;53.338;6.514;2022-10-17T06:20:24;12.90;99.90
52181;DHT22;38158;53.338;6.514;2022-10-17T06:22:50;12.90;99.90
52181;DHT22;38158;53.338;6.514;2022-10-17T06:25:16;12.90;99.90
52181;DHT22;38158;53.338;6.514;2022-10-17T06:27:41;12.90;99.90
52181;DHT22;38158;53.338;6.514;2022-10-17T06:30:07;12.90;99.90
52181;DHT22;38158;53.338;6.514;2022-10-17T06:32:33;13.00;99.90
52181;DHT22;38158;53.338;6.514;2022-10-17T06:34:58;13.00;99.90
52181;DHT22;38158;53.338;6.514;2022-10-17T06:37:24;13.00;99.90
52181;DHT22;38158;53.338;6.514;2022-10-17T06:39:50;13.00;99.90
52181;DHT22;38158;53.338;6.514;2022-10-17T06:42:16;13.10;99.90
52181;DHT22;38158;53.338;6.514;2022-10-17T06:44:41;13.10;99.90
52181;DHT22;38158;53.338;6.514;2022-10-17T06:47:08;13.10;99.90
52181;DHT22;38158;53.338;6.514;2022-10-17T06:49:34;13.10;99.90
52181;DHT22;38158;53.338;6.514;2022-10-17T06:51:59;13.20;99.90
52181;DHT22;38158;53.338;6.514;2022-10-17T06:54:25;12.60;99.90
52181;DHT22;38158;53.338;6.514;2022-10-17T06:56:52;13.30;99.90
52181;DHT22;38158;53.338;6.514;2022-10-17T06:59:18;13.40;99.90
52181;DHT22;38158;53.338;6.514;2022-10-17T07:01:44;13.40;99.90
52181;DHT22;38158;53.338;6.514;2022-10-17T07:04:10;13.50;99.90
52181;DHT22;38158;53.338;6.514;2022-10-17T07:06:37;13.60;99.90
52181;DHT22;38158;53.338;6.514;2022-10-17T07:09:03;13.70;99.90
52181;DHT22;38158;53.338;6.514;2022-10-17T07:11:31;13.80;99.90
52181;DHT22;38158;53.338;6.514;2022-10-17T07:13:57;13.80;99.90
52181;DHT22;38158;53.338;6.514;2022-10-17T07:16:23;13.80;99.90
52181;DHT22;38158;53.338;6.514;2022-10-17T07:18:49;13.80;99.90
52181;DHT22;38158;53.338;6.514;2022-10-17T07:21:16;13.90;99.90
52181;DHT22;38158;53.338;6.514;2022-10-17T07:23:41;13.90;99.90
52181;DHT22;38158;53.338;6.514;2022-10-17T07:26:09;14.00;99.90
52181;DHT22;38158;53.338;6.514;2022-10-17T07:28:38;14.00;99.90
52181;DHT22;38158;53.338;6.514;2022-10-17T07:31:06;14.10;99.90
52181;DHT22;38158;53.338;6.514;2022-10-17T07:33:32;14.10;99.90
52181;DHT22;38158;53.338;6.514;2022-10-17T07:36:02;14.20;99.90
52181;DHT22;38158;53.338;6.514;2022-10-17T07:38:29;14.30;99.90
52181;DHT22;38158;53.338;6.514;2022-10-17T07:40:56;14.30;99.90
52181;DHT22;38158;53.338;6.514;2022-10-17T07:43:23;14.40;99.90
52181;DHT22;38158;53.338;6.514;2022-10-17T07:45:49;14.40;99.90
52181;DHT22;38158;53.338;6.514;2022-10-17T07:48:14;14.50;99.90
52181;DHT22;38158;53.338;6.514;2022-10-17T07:50:40;14.50;99.90
52181;DHT22;38158;53.338;6.514;2022-10-17T07:53:06;14.60;99.90
52181;DHT22;38158;53.338;6.514;2022-10-17T07:55:32;14.60;99.90
52181;DHT22;38158;53.338;6.514;2022-10-17T07:57:57;14.60;99.90
52181;DHT22;38158;53.338;6.514;2022-10-17T08:00:25;14.70;99.90
52181;DHT22;38158;53.338;6.514;2022-10-17T08:02:51;14.70;99.90
52181;DHT22;38158;53.338;6.514;2022-10-17T08:05:17;14.80;99.90
52181;DHT22;38158;53.338;6.514;2022-10-17T08:07:42;14.80;99.90
52181;DHT22;38158;53.338;6.514;2022-10-17T08:10:10;14.90;99.90
52181;DHT22;38158;53.338;6.514;2022-10-17T08:12:36;15.00;99.90
52181;DHT22;38158;53.338;6.514;2022-10-17T08:15:03;15.00;99.90
52181;DHT22;38158;53.338;6.514;2022-10-17T08:17:29;15.10;99.90
52181;DHT22;38158;53.338;6.514;2022-10-17T08:19:54;15.20;99.90
52181;DHT22;38158;53.338;6.514;2022-10-17T08:22:20;15.20;99.90
52181;DHT22;38158;53.338;6.514;2022-10-17T08:24:46;15.20;99.90
52181;DHT22;38158;53.338;6.514;2022-10-17T08:27:12;15.20;99.90
52181;DHT22;38158;53.338;6.514;2022-10-17T08:29:39;15.30;99.90
52181;DHT22;38158;53.338;6.514;2022-10-17T08:32:05;15.40;99.90
52181;DHT22;38158;53.338;6.514;2022-10-17T08:34:33;15.50;99.90
52181;DHT22;38158;53.338;6.514;2022-10-17T08:36:59;15.50;99.90
52181;DHT22;38158;53.338;6.514;2022-10-17T08:39:25;15.50;99.90
52181;DHT22;38158;53.338;6.514;2022-10-17T08:47:21;15.70;99.90
52181;DHT22;38158;53.338;6.514;2022-10-17T08:49:55;15.80;99.90
52181;DHT22;38158;53.338;6.514;2022-10-17T08:52:34;15.80;99.90
52181;DHT22;38158;53.338;6.514;2022-10-17T08:55:00;15.90;99.90
52181;DHT22;38158;53.338;6.514;2022-10-17T08:57:26;15.90;99.90
52181;DHT22;38158;53.338;6.514;2022-10-17T08:59:53;16.00;99.90
52181;DHT22;38158;53.338;6.514;2022-10-17T09:02:42;16.10;99.90
52181;DHT22;38158;53.338;6.514;2022-10-17T09:05:24;16.10;99.90
52181;DHT22;38158;53.338;6.514;2022-10-17T09:10:57;16.20;99.90
52181;DHT22;38158;53.338;6.514;2022-10-17T09:13:49;16.20;99.90
52181;DHT22;38158;53.338;6.514;2022-10-17T09:19:34;16.30;99.90
52181;DHT22;38158;53.338;6.514;2022-10-17T09:22:04;16.40;99.90
52181;DHT22;38158;53.338;6.514;2022-10-17T09:24:50;16.40;99.90
52181;DHT22;38158;53.338;6.514;2022-10-17T09:27:36;16.40;99.90
52181;DHT22;38158;53.338;6.514;2022-10-17T09:32:47;16.50;99.90
52181;DHT22;38158;53.338;6.514;2022-10-17T09:35:13;16.50;99.90
52181;DHT22;38158;53.338;6.514;2022-10-17T09:37:40;16.60;99.90
52181;DHT22;38158;53.338;6.514;2022-10-17T09:40:10;16.60;99.90
52181;DHT22;38158;53.338;6.514;2022-10-17T09:42:38;16.60;99.90
52181;DHT22;38158;53.338;6.514;2022-10-17T09:45:16;16.60;99.90
52181;DHT22;38158;53.338;6.514;2022-10-17T09:50:31;16.60;99.90
52181;DHT22;38158;53.338;6.514;2022-10-17T09:53:02;16.60;99.90
52181;DHT22;38158;53.338;6.514;2022-10-17T09:55:39;16.50;99.90
52181;DHT22;38158;53.338;6.514;2022-10-17T09:58:07;16.60;99.90
52181;DHT22;38158;53.338;6.514;2022-10-17T10:00:37;16.50;99.90
52181;DHT22;38158;53.338;6.514;2022-10-17T10:03:13;16.50;99.90
52181;DHT22;38158;53.338;6.514;2022-10-17T10:05:40;16.50;99.90
52181;DHT22;38158;53.338;6.514;2022-10-17T10:08:17;16.40;99.90
52181;DHT22;38158;53.338;6.514;2022-10-17T10:10:44;16.40;99.90
52181;DHT22;38158;53.338;6.514;2022-10-17T10:15:49;16.30;99.90
52181;DHT22;38158;53.338;6.514;2022-10-17T10:18:28;16.30;99.90
52181;DHT22;38158;53.338;6.514;2022-10-17T10:21:18;16.20;99.90
52181;DHT22;38158;53.338;6.514;2022-10-17T10:24:03;16.20;99.90
52181;DHT22;38158;53.338;6.514;2022-10-17T10:26:46;16.20;99.90
52181;DHT22;38158;53.338;6.514;2022-10-17T10:32:23;16.20;99.90
52181;DHT22;38158;53.338;6.514;2022-10-17T10:34:59;16.10;99.90
52181;DHT22;38158;53.338;6.514;2022-10-17T10:37:28;16.10;99.90
52181;DHT22;38158;53.338;6.514;2022-10-17T10:40:02;16.10;99.90
52181;DHT22;38158;53.338;6.514;2022-10-17T10:42:30;16.10;99.90
52181;DHT22;38158;53.338;6.514;2022-10-17T10:45:02;16.10;99.90
52181;DHT22;38158;53.338;6.514;2022-10-17T10:47:30;16.10;99.90
52181;DHT22;38158;53.338;6.514;2022-10-17T10:50:33;16.10;99.90
52181;DHT22;38158;53.338;6.514;2022-10-17T10:53:33;16.10;99.90
52181;DHT22;38158;53.338;6.514;2022-10-17T11:07:06;16.10;99.90
52181;DHT22;38158;53.338;6.514;2022-10-17T11:09:39;16.10;99.90
52181;DHT22;38158;53.338;6.514;2022-10-17T11:12:15;16.10;99.90
52181;DHT22;38158;53.338;6.514;2022-10-17T11:17:42;16.20;99.90
52181;DHT22;38158;53.338;6.514;2022-10-17T11:22:44;16.30;99.90
52181;DHT22;38158;53.338;6.514;2022-10-17T11:27:36;16.30;99.90
52181;DHT22;38158;53.338;6.514;2022-10-17T11:30:03;16.30;99.90
52181;DHT22;38158;53.338;6.514;2022-10-17T11:32:57;16.30;99.90
52181;DHT22;38158;53.338;6.514;2022-10-17T11:40:37;16.30;99.90
52181;DHT22;38158;53.338;6.514;2022-10-17T11:43:12;16.30;99.90
52181;DHT22;38158;53.338;6.514;2022-10-17T11:45:46;16.30;99.90
52181;DHT22;38158;53.338;6.514;2022-10-17T11:48:19;16.30;99.90
52181;DHT22;38158;53.338;6.514;2022-10-17T11:50:50;16.30;99.90
52181;DHT22;38158;53.338;6.514;2022-10-17T11:53:22;16.30;99.90
52181;DHT22;38158;53.338;6.514;2022-10-17T11:55:49;16.30;99.90
52181;DHT22;38158;53.338;6.514;2022-10-17T12:01:08;16.30;99.90
52181;DHT22;38158;53.338;6.514;2022-10-17T12:13:52;16.30;99.90
52181;DHT22;38158;53.338;6.514;2022-10-17T12:18:45;16.30;99.90
52181;DHT22;38158;53.338;6.514;2022-10-17T12:21:11;16.30;99.90
52181;DHT22;38158;53.338;6.514;2022-10-17T12:23:37;16.30;99.90
52181;DHT22;38158;53.338;6.514;2022-10-17T12:26:08;16.30;99.90
52181;DHT22;38158;53.338;6.514;2022-10-17T12:33:55;16.30;99.90
52181;DHT22;38158;53.338;6.514;2022-10-17T12:49:42;16.20;99.90
52181;DHT22;38158;53.338;6.514;2022-10-17T12:57:59;16.20;99.90
52181;DHT22;38158;53.338;6.514;2022-10-17T13:03:27;16.20;99.90
52181;DHT22;38158;53.338;6.514;2022-10-17T13:05:58;16.20;99.90
52181;DHT22;38158;53.338;6.514;2022-10-17T13:08:57;16.20;99.90
52181;DHT22;38158;53.338;6.514;2022-10-17T13:11:14;16.20;99.90
52181;DHT22;38158;53.338;6.514;2022-10-17T13:13:45;16.20;99.90
52181;DHT22;38158;53.338;6.514;2022-10-17T13:16:31;16.20;99.90
52181;DHT22;38158;53.338;6.514;2022-10-17T13:18:58;16.10;99.90
52181;DHT22;38158;53.338;6.514;2022-10-17T13:21:25;16.10;99.90
52181;DHT22;38158;53.338;6.514;2022-10-17T13:23:51;16.00;99.90
52181;DHT22;38158;53.338;6.514;2022-10-17T13:26:23;16.00;99.90
52181;DHT22;38158;53.338;6.514;2022-10-17T13:29:10;15.90;99.90
52181;DHT22;38158;53.338;6.514;2022-10-17T13:31:38;15.80;99.90
52181;DHT22;38158;53.338;6.514;2022-10-17T13:34:14;15.70;99.90
52181;DHT22;38158;53.338;6.514;2022-10-17T13:36:41;15.70;99.90
52181;DHT22;38158;53.338;6.514;2022-10-17T13:39:12;15.70;99.90
52181;DHT22;38158;53.338;6.514;2022-10-17T13:41:39;15.70;99.90
52181;DHT22;38158;53.338;6.514;2022-10-17T13:44:17;15.70;99.90
52181;DHT22;38158;53.338;6.514;2022-10-17T13:46:44;15.70;99.90
52181;DHT22;38158;53.338;6.514;2022-10-17T13:51:57;15.60;99.90
52181;DHT22;38158;53.338;6.514;2022-10-17T13:54:37;15.70;99.90
52181;DHT22;38158;53.338;6.514;2022-10-17T13:57:05;15.60;99.90
52181;DHT22;38158;53.338;6.514;2022-10-17T13:59:41;15.60;99.90
52181;DHT22;38158;53.338;6.514;2022-10-17T14:02:21;15.60;99.90
52181;DHT22;38158;53.338;6.514;2022-10-17T14:10:04;15.50;99.90
52181;DHT22;38158;53.338;6.514;2022-10-17T14:12:31;15.50;99.90
52181;DHT22;38158;53.338;6.514;2022-10-17T14:14:57;15.50;99.90
52181;DHT22;38158;53.338;6.514;2022-10-17T14:17:26;15.50;99.90
52181;DHT22;38158;53.338;6.514;2022-10-17T14:19:58;15.60;99.90
52181;DHT22;38158;53.338;6.514;2022-10-17T14:22:28;15.50;99.90
52181;DHT22;38158;53.338;6.514;2022-10-17T14:24:55;15.50;99.90
52181;DHT22;38158;53.338;6.514;2022-10-17T14:27:35;15.50;99.90
52181;DHT22;38158;53.338;6.514;2022-10-17T14:32:51;15.50;99.90
52181;DHT22;38158;53.338;6.514;2022-10-17T14:35:19;15.50;99.90
52181;DHT22;38158;53.338;6.514;2022-10-17T14:37:47;15.50;99.90
52181;DHT22;38158;53.338;6.514;2022-10-17T14:40:19;15.50;99.90
52181;DHT22;38158;53.338;6.514;2022-10-17T14:42:46;15.50;99.90
52181;DHT22;38158;53.338;6.514;2022-10-17T14:45:24;15.50;99.90
52181;DHT22;38158;53.338;6.514;2022-10-17T14:47:52;15.40;99.90
52181;DHT22;38158;53.338;6.514;2022-10-17T14:50:21;15.40;99.90
52181;DHT22;38158;53.338;6.514;2022-10-17T14:53:06;15.40;99.90
52181;DHT22;38158;53.338;6.514;2022-10-17T14:55:55;15.40;99.90
52181;DHT22;38158;53.338;6.514;2022-10-17T14:58:22;15.40;99.90
52181;DHT22;38158;53.338;6.514;2022-10-17T15:00:48;15.30;99.90
52181;DHT22;38158;53.338;6.514;2022-10-17T15:03:14;15.30;99.90
52181;DHT22;38158;53.338;6.514;2022-10-17T15:05:40;15.30;99.90
52181;DHT22;38158;53.338;6.514;2022-10-17T15:08:16;15.30;99.90
52181;DHT22;38158;53.338;6.514;2022-10-17T15:10:43;15.30;99.90
52181;DHT22;38158;53.338;6.514;2022-10-17T15:13:10;15.30;99.90
52181;DHT22;38158;53.338;6.514;2022-10-17T15:15:37;15.30;99.90
52181;DHT22;38158;53.338;6.514;2022-10-17T15:18:04;15.40;99.90
52181;DHT22;38158;53.338;6.514;2022-10-17T15:20:29;15.40;99.90
52181;DHT22;38158;53.338;6.514;2022-10-17T15:22:58;15.40;99.90
52181;DHT22;38158;53.338;6.514;2022-10-17T15:25:24;15.40;99.90
52181;DHT22;38158;53.338;6.514;2022-10-17T15:27:51;15.40;99.90
52181;DHT22;38158;53.338;6.514;2022-10-17T15:32:48;15.40;99.90
52181;DHT22;38158;53.338;6.514;2022-10-17T15:35:14;15.40;99.90
52181;DHT22;38158;53.338;6.514;2022-10-17T15:37:40;15.40;99.90
52181;DHT22;38158;53.338;6.514;2022-10-17T15:40:13;15.30;99.90
52181;DHT22;38158;53.338;6.514;2022-10-17T15:42:39;15.30;99.90
52181;DHT22;38158;53.338;6.514;2022-10-17T15:45:05;15.30;99.90
52181;DHT22;38158;53.338;6.514;2022-10-17T15:47:31;15.20;99.90
52181;DHT22;38158;53.338;6.514;2022-10-17T15:49:58;15.20;99.90
52181;DHT22;38158;53.338;6.514;2022-10-17T15:52:25;15.20;99.90
52181;DHT22;38158;53.338;6.514;2022-10-17T15:54:51;15.10;99.90
52181;DHT22;38158;53.338;6.514;2022-10-17T15:57:26;15.10;99.90
52181;DHT22;38158;53.338;6.514;2022-10-17T15:59:53;15.10;99.90
52181;DHT22;38158;53.338;6.514;2022-10-17T16:02:21;15.00;99.90
52181;DHT22;38158;53.338;6.514;2022-10-17T16:04:48;15.00;99.90
52181;DHT22;38158;53.338;6.514;2022-10-17T16:07:14;15.00;99.90
52181;DHT22;38158;53.338;6.514;2022-10-17T16:09:40;15.00;99.90
52181;DHT22;38158;53.338;6.514;2022-10-17T16:12:17;15.00;99.90
52181;DHT22;38158;53.338;6.514;2022-10-17T16:14:43;15.00;99.90
52181;DHT22;38158;53.338;6.514;2022-10-17T16:17:15;14.90;99.90
52181;DHT22;38158;53.338;6.514;2022-10-17T16:19:41;14.90;99.90
52181;DHT22;38158;53.338;6.514;2022-10-17T16:22:17;14.90;99.90
52181;DHT22;38158;53.338;6.514;2022-10-17T16:24:44;14.80;99.90
52181;DHT22;38158;53.338;6.514;2022-10-17T16:27:10;14.80;99.90
52181;DHT22;38158;53.338;6.514;2022-10-17T16:29:35;14.80;99.90
52181;DHT22;38158;53.338;6.514;2022-10-17T16:32:01;14.80;99.90
52181;DHT22;38158;53.338;6.514;2022-10-17T16:34:26;14.80;99.90
52181;DHT22;38158;53.338;6.514;2022-10-17T16:36:55;14.70;99.90
52181;DHT22;38158;53.338;6.514;2022-10-17T16:39:20;14.70;99.90
52181;DHT22;38158;53.338;6.514;2022-10-17T16:41:46;14.70;99.90
52181;DHT22;38158;53.338;6.514;2022-10-17T16:44:11;14.70;99.90
52181;DHT22;38158;53.338;6.514;2022-10-17T16:46:39;14.60;99.90
52181;DHT22;38158;53.338;6.514;2022-10-17T16:49:05;14.60;99.90
52181;DHT22;38158;53.338;6.514;2022-10-17T16:51:31;14.60;99.90
52181;DHT22;38158;53.338;6.514;2022-10-17T16:54:00;14.50;99.90
52181;DHT22;38158;53.338;6.514;2022-10-17T16:56:26;14.50;99.90
52181;DHT22;38158;53.338;6.514;2022-10-17T16:58:57;14.50;99.90
52181;DHT22;38158;53.338;6.514;2022-10-17T17:01:24;14.40;99.90
52181;DHT22;38158;53.338;6.514;2022-10-17T17:03:51;14.40;99.90
52181;DHT22;38158;53.338;6.514;2022-10-17T17:06:19;14.40;99.90
52181;DHT22;38158;53.338;6.514;2022-10-17T17:08:45;14.40;99.90
52181;DHT22;38158;53.338;6.514;2022-10-17T17:11:13;14.40;99.90
52181;DHT22;38158;53.338;6.514;2022-10-17T17:13:39;14.40;99.90
52181;DHT22;38158;53.338;6.514;2022-10-17T17:16:13;14.30;99.90
52181;DHT22;38158;53.338;6.514;2022-10-17T17:18:40;14.30;99.90
52181;DHT22;38158;53.338;6.514;2022-10-17T17:21:07;14.30;99.90
52181;DHT22;38158;53.338;6.514;2022-10-17T17:23:35;14.30;99.90
52181;DHT22;38158;53.338;6.514;2022-10-17T17:26:04;14.20;99.90
52181;DHT22;38158;53.338;6.514;2022-10-17T17:28:31;14.20;99.90
52181;DHT22;38158;53.338;6.514;2022-10-17T17:30:57;14.20;99.90
52181;DHT22;38158;53.338;6.514;2022-10-17T17:33:23;14.20;99.90
52181;DHT22;38158;53.338;6.514;2022-10-17T17:36:00;14.20;99.90
52181;DHT22;38158;53.338;6.514;2022-10-17T17:38:30;14.20;99.90
52181;DHT22;38158;53.338;6.514;2022-10-17T17:40:56;14.10;99.90
52181;DHT22;38158;53.338;6.514;2022-10-17T17:43:22;14.10;99.90
52181;DHT22;38158;53.338;6.514;2022-10-17T17:45:48;14.10;99.90
52181;DHT22;38158;53.338;6.514;2022-10-17T17:48:14;14.10;99.90
52181;DHT22;38158;53.338;6.514;2022-10-17T17:50:41;14.10;99.90